sensor_id;sensor_type;location;lat;lon;timestamp;P1;durP1;ratioP1;P2;durP2;ratioP2
15317;SDS011;7759;52.528;13.346;2023-11-19T00:01:02;5.60;;;3.37;;
15317;SDS011;7759;52.528;13.346;2023-11-19T00:03:30;5.23;;;4.00;;
15317;SDS011;7759;52.528;13.346;2023-11-19T00:05:56;6.07;;;3.80;;
15317;SDS011;7759;52.528;13.346;2023-11-19T00:08:22;7.33;;;4.40;;
15317;SDS011;7759;52.528;13.346;2023-11-19T00:10:49;4.77;;;3.40;;
15317;SDS011;7759;52.528;13.346;2023-11-19T00:13:16;4.63;;;3.23;;
15317;SDS011;7759;52.528;13.346;2023-11-19T00:15:41;6.43;;;4.00;;
15317;SDS011;7759;52.528;13.346;2023-11-19T00:18:07;6.63;;;3.87;;
15317;SDS011;7759;52.528;13.346;2023-11-19T00:20:33;4.93;;;3.10;;
15317;SDS011;7759;52.528;13.346;2023-11-19T00:23:01;4.83;;;3.37;;
15317;SDS011;7759;52.528;13.346;2023-11-19T00:25:27;6.70;;;4.40;;
15317;SDS011;7759;52.528;13.346;2023-11-19T00:27:53;7.47;;;4.10;;
15317;SDS011;7759;52.528;13.346;2023-11-19T00:30:21;5.33;;;3.73;;
15317;SDS011;7759;52.528;13.346;2023-11-19T00:32:47;6.23;;;3.47;;
15317;SDS011;7759;52.528;13.346;2023-11-19T00:35:14;6.60;;;4.07;;
15317;SDS011;7759;52.528;13.346;2023-11-19T00:37:44;4.93;;;3.67;;
15317;SDS011;7759;52.528;13.346;2023-11-19T00:40:15;6.27;;;3.63;;
15317;SDS011;7759;52.528;13.346;2023-11-19T00:42:43;4.07;;;2.87;;
15317;SDS011;7759;52.528;13.346;2023-11-19T00:45:09;5.37;;;3.50;;
15317;SDS011;7759;52.528;13.346;2023-11-19T00:47:37;4.67;;;3.27;;
15317;SDS011;7759;52.528;13.346;2023-11-19T00:50:03;5.33;;;3.20;;
15317;SDS011;7759;52.528;13.346;2023-11-19T00:52:29;7.60;;;3.73;;
15317;SDS011;7759;52.528;13.346;2023-11-19T00:54:55;7.43;;;4.57;;
15317;SDS011;7759;52.528;13.346;2023-11-19T00:57:21;4.70;;;3.00;;
15317;SDS011;7759;52.528;13.346;2023-11-19T00:59:48;3.97;;;3.10;;
15317;SDS011;7759;52.528;13.346;2023-11-19T01:02:16;5.40;;;4.03;;
15317;SDS011;7759;52.528;13.346;2023-11-19T01:04:42;4.43;;;2.83;;
15317;SDS011;7759;52.528;13.346;2023-11-19T01:07:08;4.07;;;2.80;;
15317;SDS011;7759;52.528;13.346;2023-11-19T01:09:37;4.03;;;2.90;;
15317;SDS011;7759;52.528;13.346;2023-11-19T01:12:04;5.23;;;3.73;;
15317;SDS011;7759;52.528;13.346;2023-11-19T01:14:30;6.63;;;3.37;;
15317;SDS011;7759;52.528;13.346;2023-11-19T01:16:56;4.93;;;3.33;;
15317;SDS011;7759;52.528;13.346;2023-11-19T01:19:22;4.63;;;3.30;;
15317;SDS011;7759;52.528;13.346;2023-11-19T01:21:49;3.50;;;2.73;;
15317;SDS011;7759;52.528;13.346;2023-11-19T01:24:15;4.07;;;2.97;;
15317;SDS011;7759;52.528;13.346;2023-11-19T01:26:41;4.20;;;3.13;;
15317;SDS011;7759;52.528;13.346;2023-11-19T01:29:11;4.77;;;3.37;;
15317;SDS011;7759;52.528;13.346;2023-11-19T01:31:39;4.50;;;3.00;;
15317;SDS011;7759;52.528;13.346;2023-11-19T01:34:06;5.80;;;3.40;;
15317;SDS011;7759;52.528;13.346;2023-11-19T01:36:32;3.13;;;2.77;;
15317;SDS011;7759;52.528;13.346;2023-11-19T01:38:58;4.57;;;2.90;;
15317;SDS011;7759;52.528;13.346;2023-11-19T01:41:24;5.67;;;3.30;;
15317;SDS011;7759;52.528;13.346;2023-11-19T01:43:50;4.07;;;3.00;;
15317;SDS011;7759;52.528;13.346;2023-11-19T01:46:16;4.10;;;2.97;;
15317;SDS011;7759;52.528;13.346;2023-11-19T01:48:45;4.70;;;3.00;;
15317;SDS011;7759;52.528;13.346;2023-11-19T01:51:12;4.77;;;3.30;;
15317;SDS011;7759;52.528;13.346;2023-11-19T01:53:41;4.07;;;3.00;;
15317;SDS011;7759;52.528;13.346;2023-11-19T01:56:07;4.80;;;3.00;;
15317;SDS011;7759;52.528;13.346;2023-11-19T01:58:34;6.00;;;3.40;;
15317;SDS011;7759;52.528;13.346;2023-11-19T02:01:00;7.60;;;3.37;;
15317;SDS011;7759;52.528;13.346;2023-11-19T02:03:28;4.70;;;2.93;;
15317;SDS011;7759;52.528;13.346;2023-11-19T02:05:55;3.37;;;3.00;;
15317;SDS011;7759;52.528;13.346;2023-11-19T02:08:20;3.33;;;2.43;;
15317;SDS011;7759;52.528;13.346;2023-11-19T02:10:48;3.93;;;2.93;;
15317;SDS011;7759;52.528;13.346;2023-11-19T02:13:14;4.57;;;3.23;;
15317;SDS011;7759;52.528;13.346;2023-11-19T02:15:41;5.80;;;3.10;;
15317;SDS011;7759;52.528;13.346;2023-11-19T02:20:55;4.00;;;3.10;;
15317;SDS011;7759;52.528;13.346;2023-11-19T02:23:21;4.37;;;3.20;;
15317;SDS011;7759;52.528;13.346;2023-11-19T02:25:51;3.20;;;2.53;;
15317;SDS011;7759;52.528;13.346;2023-11-19T02:28:20;4.10;;;2.83;;
15317;SDS011;7759;52.528;13.346;2023-11-19T02:30:46;6.67;;;3.40;;
15317;SDS011;7759;52.528;13.346;2023-11-19T02:33:12;5.10;;;3.40;;
15317;SDS011;7759;52.528;13.346;2023-11-19T02:35:40;4.70;;;3.27;;
15317;SDS011;7759;52.528;13.346;2023-11-19T02:38:06;4.50;;;3.13;;
15317;SDS011;7759;52.528;13.346;2023-11-19T02:40:32;3.53;;;3.03;;
15317;SDS011;7759;52.528;13.346;2023-11-19T02:42:58;6.47;;;3.20;;
15317;SDS011;7759;52.528;13.346;2023-11-19T02:45:24;5.07;;;2.97;;
15317;SDS011;7759;52.528;13.346;2023-11-19T02:47:51;4.83;;;2.60;;
15317;SDS011;7759;52.528;13.346;2023-11-19T02:50:19;3.50;;;2.60;;
15317;SDS011;7759;52.528;13.346;2023-11-19T02:52:54;3.53;;;2.67;;
15317;SDS011;7759;52.528;13.346;2023-11-19T02:55:21;4.03;;;2.70;;
15317;SDS011;7759;52.528;13.346;2023-11-19T02:57:49;4.77;;;3.00;;
15317;SDS011;7759;52.528;13.346;2023-11-19T03:00:15;4.17;;;2.87;;
15317;SDS011;7759;52.528;13.346;2023-11-19T03:02:43;4.00;;;2.60;;
15317;SDS011;7759;52.528;13.346;2023-11-19T03:05:13;5.13;;;2.67;;
15317;SDS011;7759;52.528;13.346;2023-11-19T03:07:40;4.07;;;2.57;;
15317;SDS011;7759;52.528;13.346;2023-11-19T03:10:09;3.20;;;2.27;;
15317;SDS011;7759;52.528;13.346;2023-11-19T03:12:39;4.70;;;2.83;;
15317;SDS011;7759;52.528;13.346;2023-11-19T03:15:05;4.27;;;2.50;;
15317;SDS011;7759;52.528;13.346;2023-11-19T03:17:32;3.97;;;2.70;;
15317;SDS011;7759;52.528;13.346;2023-11-19T03:19:59;5.00;;;3.03;;
15317;SDS011;7759;52.528;13.346;2023-11-19T03:22:26;3.27;;;1.93;;
15317;SDS011;7759;52.528;13.346;2023-11-19T03:24:51;3.33;;;2.40;;
15317;SDS011;7759;52.528;13.346;2023-11-19T03:27:17;3.27;;;2.80;;
15317;SDS011;7759;52.528;13.346;2023-11-19T03:29:43;3.77;;;2.00;;
15317;SDS011;7759;52.528;13.346;2023-11-19T03:32:09;3.17;;;2.27;;
15317;SDS011;7759;52.528;13.346;2023-11-19T03:34:37;4.57;;;2.47;;
15317;SDS011;7759;52.528;13.346;2023-11-19T03:37:03;3.03;;;2.30;;
15317;SDS011;7759;52.528;13.346;2023-11-19T03:39:28;4.37;;;2.60;;
15317;SDS011;7759;52.528;13.346;2023-11-19T03:41:54;3.70;;;2.27;;
15317;SDS011;7759;52.528;13.346;2023-11-19T03:44:20;4.17;;;2.80;;
15317;SDS011;7759;52.528;13.346;2023-11-19T03:46:47;2.50;;;2.30;;
15317;SDS011;7759;52.528;13.346;2023-11-19T03:49:13;3.27;;;2.20;;
15317;SDS011;7759;52.528;13.346;2023-11-19T03:51:38;3.13;;;2.43;;
15317;SDS011;7759;52.528;13.346;2023-11-19T03:54:05;5.47;;;2.60;;
15317;SDS011;7759;52.528;13.346;2023-11-19T03:56:31;5.27;;;2.70;;
15317;SDS011;7759;52.528;13.346;2023-11-19T03:58:57;3.83;;;2.97;;
15317;SDS011;7759;52.528;13.346;2023-11-19T04:01:23;2.97;;;2.40;;
15317;SDS011;7759;52.528;13.346;2023-11-19T04:03:49;4.60;;;2.63;;
15317;SDS011;7759;52.528;13.346;2023-11-19T04:06:15;5.00;;;2.93;;
15317;SDS011;7759;52.528;13.346;2023-11-19T04:08:41;4.30;;;2.83;;
15317;SDS011;7759;52.528;13.346;2023-11-19T04:11:07;3.10;;;2.23;;
15317;SDS011;7759;52.528;13.346;2023-11-19T04:13:33;4.53;;;2.77;;
15317;SDS011;7759;52.528;13.346;2023-11-19T04:15:59;3.17;;;2.83;;
15317;SDS011;7759;52.528;13.346;2023-11-19T04:18:26;4.53;;;3.00;;
15317;SDS011;7759;52.528;13.346;2023-11-19T04:20:52;3.43;;;2.70;;
15317;SDS011;7759;52.528;13.346;2023-11-19T04:23:18;3.33;;;2.60;;
15317;SDS011;7759;52.528;13.346;2023-11-19T04:25:44;9.80;;;3.17;;
15317;SDS011;7759;52.528;13.346;2023-11-19T04:28:09;4.70;;;3.07;;
15317;SDS011;7759;52.528;13.346;2023-11-19T04:30:35;5.17;;;2.63;;
15317;SDS011;7759;52.528;13.346;2023-11-19T04:33:02;3.17;;;2.57;;
15317;SDS011;7759;52.528;13.346;2023-11-19T04:35:28;4.23;;;3.03;;
15317;SDS011;7759;52.528;13.346;2023-11-19T04:37:54;3.87;;;2.40;;
15317;SDS011;7759;52.528;13.346;2023-11-19T04:40:22;4.03;;;2.73;;
15317;SDS011;7759;52.528;13.346;2023-11-19T04:42:48;4.67;;;2.67;;
15317;SDS011;7759;52.528;13.346;2023-11-19T04:45:14;4.37;;;3.07;;
15317;SDS011;7759;52.528;13.346;2023-11-19T04:47:41;3.60;;;2.60;;
15317;SDS011;7759;52.528;13.346;2023-11-19T04:50:07;4.50;;;2.83;;
15317;SDS011;7759;52.528;13.346;2023-11-19T04:52:36;4.53;;;3.03;;
15317;SDS011;7759;52.528;13.346;2023-11-19T04:55:03;4.07;;;2.60;;
15317;SDS011;7759;52.528;13.346;2023-11-19T04:57:29;5.33;;;3.30;;
15317;SDS011;7759;52.528;13.346;2023-11-19T04:59:56;4.03;;;2.67;;
15317;SDS011;7759;52.528;13.346;2023-11-19T05:02:22;5.10;;;3.10;;
15317;SDS011;7759;52.528;13.346;2023-11-19T05:04:47;3.57;;;2.80;;
15317;SDS011;7759;52.528;13.346;2023-11-19T05:07:14;5.70;;;3.00;;
15317;SDS011;7759;52.528;13.346;2023-11-19T05:09:40;6.13;;;3.70;;
15317;SDS011;7759;52.528;13.346;2023-11-19T05:12:06;3.70;;;2.73;;
15317;SDS011;7759;52.528;13.346;2023-11-19T05:14:35;4.13;;;2.90;;
15317;SDS011;7759;52.528;13.346;2023-11-19T05:17:00;3.70;;;2.50;;
15317;SDS011;7759;52.528;13.346;2023-11-19T05:19:26;3.90;;;2.43;;
15317;SDS011;7759;52.528;13.346;2023-11-19T05:21:52;4.63;;;3.20;;
15317;SDS011;7759;52.528;13.346;2023-11-19T05:24:18;4.00;;;2.57;;
15317;SDS011;7759;52.528;13.346;2023-11-19T05:26:44;5.20;;;3.10;;
15317;SDS011;7759;52.528;13.346;2023-11-19T05:29:10;3.13;;;2.70;;
15317;SDS011;7759;52.528;13.346;2023-11-19T05:31:36;3.93;;;2.77;;
15317;SDS011;7759;52.528;13.346;2023-11-19T05:34:02;3.73;;;2.70;;
15317;SDS011;7759;52.528;13.346;2023-11-19T05:36:27;3.73;;;2.53;;
15317;SDS011;7759;52.528;13.346;2023-11-19T05:38:53;3.67;;;2.37;;
15317;SDS011;7759;52.528;13.346;2023-11-19T05:41:19;4.07;;;2.50;;
15317;SDS011;7759;52.528;13.346;2023-11-19T05:43:45;3.77;;;2.23;;
15317;SDS011;7759;52.528;13.346;2023-11-19T05:46:11;3.13;;;2.50;;
15317;SDS011;7759;52.528;13.346;2023-11-19T05:48:38;3.90;;;2.80;;
15317;SDS011;7759;52.528;13.346;2023-11-19T05:51:04;4.27;;;2.83;;
15317;SDS011;7759;52.528;13.346;2023-11-19T05:53:30;2.20;;;2.00;;
15317;SDS011;7759;52.528;13.346;2023-11-19T05:55:57;3.90;;;2.53;;
15317;SDS011;7759;52.528;13.346;2023-11-19T05:58:23;3.73;;;2.50;;
15317;SDS011;7759;52.528;13.346;2023-11-19T06:00:50;3.77;;;2.67;;
15317;SDS011;7759;52.528;13.346;2023-11-19T06:03:16;3.33;;;2.33;;
15317;SDS011;7759;52.528;13.346;2023-11-19T06:05:44;3.33;;;2.53;;
15317;SDS011;7759;52.528;13.346;2023-11-19T06:08:11;3.80;;;2.70;;
15317;SDS011;7759;52.528;13.346;2023-11-19T06:10:38;3.63;;;2.47;;
15317;SDS011;7759;52.528;13.346;2023-11-19T06:13:04;3.37;;;2.23;;
15317;SDS011;7759;52.528;13.346;2023-11-19T06:15:30;4.20;;;2.43;;
15317;SDS011;7759;52.528;13.346;2023-11-19T06:17:58;3.97;;;2.40;;
15317;SDS011;7759;52.528;13.346;2023-11-19T06:20:28;3.03;;;2.23;;
15317;SDS011;7759;52.528;13.346;2023-11-19T06:22:54;3.17;;;2.20;;
15317;SDS011;7759;52.528;13.346;2023-11-19T06:25:20;2.43;;;1.90;;
15317;SDS011;7759;52.528;13.346;2023-11-19T06:27:46;3.67;;;2.17;;
15317;SDS011;7759;52.528;13.346;2023-11-19T06:30:12;3.93;;;2.47;;
15317;SDS011;7759;52.528;13.346;2023-11-19T06:32:38;3.47;;;2.03;;
15317;SDS011;7759;52.528;13.346;2023-11-19T06:35:04;3.30;;;2.00;;
15317;SDS011;7759;52.528;13.346;2023-11-19T06:37:31;2.70;;;2.10;;
15317;SDS011;7759;52.528;13.346;2023-11-19T06:39:57;4.13;;;2.50;;
15317;SDS011;7759;52.528;13.346;2023-11-19T06:42:24;3.17;;;2.20;;
15317;SDS011;7759;52.528;13.346;2023-11-19T06:44:50;4.37;;;2.40;;
15317;SDS011;7759;52.528;13.346;2023-11-19T06:47:16;3.00;;;2.27;;
15317;SDS011;7759;52.528;13.346;2023-11-19T06:49:43;2.93;;;2.07;;
15317;SDS011;7759;52.528;13.346;2023-11-19T06:52:11;2.87;;;2.30;;
15317;SDS011;7759;52.528;13.346;2023-11-19T06:54:40;2.90;;;2.10;;
15317;SDS011;7759;52.528;13.346;2023-11-19T06:57:06;2.90;;;2.20;;
15317;SDS011;7759;52.528;13.346;2023-11-19T06:59:34;2.70;;;2.10;;
15317;SDS011;7759;52.528;13.346;2023-11-19T07:02:01;2.63;;;2.30;;
15317;SDS011;7759;52.528;13.346;2023-11-19T07:04:27;2.63;;;2.10;;
15317;SDS011;7759;52.528;13.346;2023-11-19T07:06:53;2.03;;;1.80;;
15317;SDS011;7759;52.528;13.346;2023-11-19T07:09:19;3.30;;;2.17;;
15317;SDS011;7759;52.528;13.346;2023-11-19T07:11:46;2.57;;;2.07;;
15317;SDS011;7759;52.528;13.346;2023-11-19T07:14:12;2.80;;;2.03;;
15317;SDS011;7759;52.528;13.346;2023-11-19T07:16:38;3.33;;;2.23;;
15317;SDS011;7759;52.528;13.346;2023-11-19T07:19:04;2.37;;;1.90;;
15317;SDS011;7759;52.528;13.346;2023-11-19T07:21:30;2.33;;;1.80;;
15317;SDS011;7759;52.528;13.346;2023-11-19T07:23:56;2.63;;;1.90;;
15317;SDS011;7759;52.528;13.346;2023-11-19T07:26:22;4.43;;;2.60;;
15317;SDS011;7759;52.528;13.346;2023-11-19T07:28:50;2.20;;;1.90;;
15317;SDS011;7759;52.528;13.346;2023-11-19T07:31:16;2.40;;;1.73;;
15317;SDS011;7759;52.528;13.346;2023-11-19T07:33:44;2.53;;;2.00;;
15317;SDS011;7759;52.528;13.346;2023-11-19T07:36:10;2.77;;;1.70;;
15317;SDS011;7759;52.528;13.346;2023-11-19T07:38:36;2.00;;;1.60;;
15317;SDS011;7759;52.528;13.346;2023-11-19T07:41:07;2.57;;;1.80;;
15317;SDS011;7759;52.528;13.346;2023-11-19T07:43:37;2.53;;;2.00;;
15317;SDS011;7759;52.528;13.346;2023-11-19T07:46:04;2.80;;;2.00;;
15317;SDS011;7759;52.528;13.346;2023-11-19T07:48:32;2.70;;;1.60;;
15317;SDS011;7759;52.528;13.346;2023-11-19T07:50:59;2.43;;;1.90;;
15317;SDS011;7759;52.528;13.346;2023-11-19T07:53:27;2.80;;;2.10;;
15317;SDS011;7759;52.528;13.346;2023-11-19T07:55:54;2.17;;;1.87;;
15317;SDS011;7759;52.528;13.346;2023-11-19T07:58:20;3.43;;;2.33;;
15317;SDS011;7759;52.528;13.346;2023-11-19T08:00:46;1.93;;;1.67;;
15317;SDS011;7759;52.528;13.346;2023-11-19T08:03:11;4.43;;;3.03;;
15317;SDS011;7759;52.528;13.346;2023-11-19T08:05:39;2.43;;;2.20;;
15317;SDS011;7759;52.528;13.346;2023-11-19T08:08:05;3.10;;;1.80;;
15317;SDS011;7759;52.528;13.346;2023-11-19T08:10:32;2.00;;;1.67;;
15317;SDS011;7759;52.528;13.346;2023-11-19T08:12:58;2.33;;;1.40;;
15317;SDS011;7759;52.528;13.346;2023-11-19T08:15:24;4.23;;;2.00;;
15317;SDS011;7759;52.528;13.346;2023-11-19T08:17:50;1.87;;;1.67;;
15317;SDS011;7759;52.528;13.346;2023-11-19T08:20:16;2.60;;;1.70;;
15317;SDS011;7759;52.528;13.346;2023-11-19T08:22:42;1.83;;;1.53;;
15317;SDS011;7759;52.528;13.346;2023-11-19T08:25:08;1.87;;;1.50;;
15317;SDS011;7759;52.528;13.346;2023-11-19T08:27:34;2.67;;;1.90;;
15317;SDS011;7759;52.528;13.346;2023-11-19T08:29:59;2.00;;;1.67;;
15317;SDS011;7759;52.528;13.346;2023-11-19T08:32:26;2.90;;;1.80;;
15317;SDS011;7759;52.528;13.346;2023-11-19T08:34:52;2.63;;;1.77;;
15317;SDS011;7759;52.528;13.346;2023-11-19T08:37:20;3.40;;;2.10;;
15317;SDS011;7759;52.528;13.346;2023-11-19T08:39:47;2.43;;;1.67;;
15317;SDS011;7759;52.528;13.346;2023-11-19T08:42:13;3.47;;;1.97;;
15317;SDS011;7759;52.528;13.346;2023-11-19T08:44:39;2.13;;;1.80;;
15317;SDS011;7759;52.528;13.346;2023-11-19T08:47:08;5.70;;;3.00;;
15317;SDS011;7759;52.528;13.346;2023-11-19T08:49:34;3.17;;;2.20;;
15317;SDS011;7759;52.528;13.346;2023-11-19T08:52:01;2.30;;;1.97;;
15317;SDS011;7759;52.528;13.346;2023-11-19T08:54:27;3.13;;;2.30;;
15317;SDS011;7759;52.528;13.346;2023-11-19T08:56:52;3.67;;;2.10;;
15317;SDS011;7759;52.528;13.346;2023-11-19T08:59:18;3.10;;;1.80;;
15317;SDS011;7759;52.528;13.346;2023-11-19T09:01:44;2.47;;;1.37;;
15317;SDS011;7759;52.528;13.346;2023-11-19T09:04:11;2.93;;;2.10;;
15317;SDS011;7759;52.528;13.346;2023-11-19T09:06:37;3.70;;;2.00;;
15317;SDS011;7759;52.528;13.346;2023-11-19T09:09:03;2.87;;;1.90;;
15317;SDS011;7759;52.528;13.346;2023-11-19T09:11:30;2.33;;;1.83;;
15317;SDS011;7759;52.528;13.346;2023-11-19T09:13:56;2.10;;;1.63;;
15317;SDS011;7759;52.528;13.346;2023-11-19T09:16:22;2.00;;;1.53;;
15317;SDS011;7759;52.528;13.346;2023-11-19T09:18:48;2.97;;;1.90;;
15317;SDS011;7759;52.528;13.346;2023-11-19T09:21:14;2.70;;;1.90;;
15317;SDS011;7759;52.528;13.346;2023-11-19T09:23:40;2.67;;;1.80;;
15317;SDS011;7759;52.528;13.346;2023-11-19T09:26:06;1.67;;;1.50;;
15317;SDS011;7759;52.528;13.346;2023-11-19T09:28:35;2.53;;;1.43;;
15317;SDS011;7759;52.528;13.346;2023-11-19T09:31:01;2.37;;;1.67;;
15317;SDS011;7759;52.528;13.346;2023-11-19T09:33:29;2.97;;;1.87;;
15317;SDS011;7759;52.528;13.346;2023-11-19T09:35:55;2.07;;;1.80;;
15317;SDS011;7759;52.528;13.346;2023-11-19T09:38:21;2.43;;;1.50;;
15317;SDS011;7759;52.528;13.346;2023-11-19T09:40:47;2.43;;;1.83;;
15317;SDS011;7759;52.528;13.346;2023-11-19T09:43:13;1.57;;;1.47;;
15317;SDS011;7759;52.528;13.346;2023-11-19T09:45:49;2.83;;;1.80;;
15317;SDS011;7759;52.528;13.346;2023-11-19T09:48:18;1.93;;;1.37;;
15317;SDS011;7759;52.528;13.346;2023-11-19T09:50:47;2.73;;;1.90;;
15317;SDS011;7759;52.528;13.346;2023-11-19T09:53:14;2.53;;;1.60;;
15317;SDS011;7759;52.528;13.346;2023-11-19T09:55:40;2.17;;;1.43;;
15317;SDS011;7759;52.528;13.346;2023-11-19T09:58:07;4.47;;;1.33;;
15317;SDS011;7759;52.528;13.346;2023-11-19T10:00:33;2.37;;;1.27;;
15317;SDS011;7759;52.528;13.346;2023-11-19T10:02:59;2.37;;;1.30;;
15317;SDS011;7759;52.528;13.346;2023-11-19T10:05:26;1.80;;;1.40;;
15317;SDS011;7759;52.528;13.346;2023-11-19T10:07:52;2.83;;;1.70;;
15317;SDS011;7759;52.528;13.346;2023-11-19T10:10:20;4.33;;;2.03;;
15317;SDS011;7759;52.528;13.346;2023-11-19T10:12:46;2.23;;;1.40;;
15317;SDS011;7759;52.528;13.346;2023-11-19T10:15:20;1.93;;;1.30;;
15317;SDS011;7759;52.528;13.346;2023-11-19T10:17:51;1.80;;;1.47;;
15317;SDS011;7759;52.528;13.346;2023-11-19T10:20:17;1.90;;;1.27;;
15317;SDS011;7759;52.528;13.346;2023-11-19T10:22:44;2.37;;;1.23;;
15317;SDS011;7759;52.528;13.346;2023-11-19T10:25:29;1.63;;;1.00;;
15317;SDS011;7759;52.528;13.346;2023-11-19T10:27:58;1.23;;;0.97;;
15317;SDS011;7759;52.528;13.346;2023-11-19T10:30:26;1.87;;;0.93;;
15317;SDS011;7759;52.528;13.346;2023-11-19T10:33:06;2.50;;;1.20;;
15317;SDS011;7759;52.528;13.346;2023-11-19T10:35:36;2.40;;;1.20;;
15317;SDS011;7759;52.528;13.346;2023-11-19T10:38:13;1.40;;;1.00;;
15317;SDS011;7759;52.528;13.346;2023-11-19T10:40:40;3.03;;;1.70;;
15317;SDS011;7759;52.528;13.346;2023-11-19T10:43:06;5.87;;;1.30;;
15317;SDS011;7759;52.528;13.346;2023-11-19T10:45:32;1.00;;;0.80;;
15317;SDS011;7759;52.528;13.346;2023-11-19T10:47:59;2.67;;;1.30;;
15317;SDS011;7759;52.528;13.346;2023-11-19T10:50:28;2.57;;;0.90;;
15317;SDS011;7759;52.528;13.346;2023-11-19T10:52:57;1.80;;;1.07;;
15317;SDS011;7759;52.528;13.346;2023-11-19T10:55:27;2.93;;;1.07;;
15317;SDS011;7759;52.528;13.346;2023-11-19T10:57:58;2.47;;;1.30;;
15317;SDS011;7759;52.528;13.346;2023-11-19T11:00:24;2.03;;;1.00;;
15317;SDS011;7759;52.528;13.346;2023-11-19T11:02:52;4.53;;;1.63;;
15317;SDS011;7759;52.528;13.346;2023-11-19T11:05:21;2.70;;;0.90;;
15317;SDS011;7759;52.528;13.346;2023-11-19T11:07:47;2.33;;;1.03;;
15317;SDS011;7759;52.528;13.346;2023-11-19T11:10:14;2.50;;;1.40;;
15317;SDS011;7759;52.528;13.346;2023-11-19T11:12:41;3.87;;;1.90;;
15317;SDS011;7759;52.528;13.346;2023-11-19T11:15:11;5.13;;;1.47;;
15317;SDS011;7759;52.528;13.346;2023-11-19T11:17:38;3.37;;;1.77;;
15317;SDS011;7759;52.528;13.346;2023-11-19T11:20:05;5.83;;;1.77;;
15317;SDS011;7759;52.528;13.346;2023-11-19T11:22:33;4.40;;;1.50;;
15317;SDS011;7759;52.528;13.346;2023-11-19T11:27:48;4.77;;;1.47;;
15317;SDS011;7759;52.528;13.346;2023-11-19T11:30:30;2.90;;;1.50;;
15317;SDS011;7759;52.528;13.346;2023-11-19T11:38:16;3.30;;;1.40;;
15317;SDS011;7759;52.528;13.346;2023-11-19T11:40:44;3.07;;;1.53;;
15317;SDS011;7759;52.528;13.346;2023-11-19T11:49:03;3.63;;;1.20;;
15317;SDS011;7759;52.528;13.346;2023-11-19T11:54:11;5.57;;;1.53;;
15317;SDS011;7759;52.528;13.346;2023-11-19T11:56:37;6.50;;;1.50;;
15317;SDS011;7759;52.528;13.346;2023-11-19T11:59:05;6.83;;;1.90;;
15317;SDS011;7759;52.528;13.346;2023-11-19T12:01:33;3.67;;;1.40;;
15317;SDS011;7759;52.528;13.346;2023-11-19T12:03:59;4.77;;;1.40;;
15317;SDS011;7759;52.528;13.346;2023-11-19T12:06:26;6.70;;;1.83;;
15317;SDS011;7759;52.528;13.346;2023-11-19T12:08:59;3.50;;;1.40;;
15317;SDS011;7759;52.528;13.346;2023-11-19T12:11:25;1.70;;;1.10;;
15317;SDS011;7759;52.528;13.346;2023-11-19T12:13:54;6.00;;;1.90;;
15317;SDS011;7759;52.528;13.346;2023-11-19T12:16:23;8.23;;;1.63;;
15317;SDS011;7759;52.528;13.346;2023-11-19T12:18:49;4.47;;;1.53;;
15317;SDS011;7759;52.528;13.346;2023-11-19T12:21:30;5.43;;;1.90;;
15317;SDS011;7759;52.528;13.346;2023-11-19T12:23:58;3.20;;;1.20;;
15317;SDS011;7759;52.528;13.346;2023-11-19T12:26:33;5.07;;;1.73;;
15317;SDS011;7759;52.528;13.346;2023-11-19T12:28:59;1.97;;;1.27;;
15317;SDS011;7759;52.528;13.346;2023-11-19T12:31:25;6.43;;;2.07;;
15317;SDS011;7759;52.528;13.346;2023-11-19T12:33:51;5.63;;;1.50;;
15317;SDS011;7759;52.528;13.346;2023-11-19T12:36:18;7.90;;;1.20;;
15317;SDS011;7759;52.528;13.346;2023-11-19T12:38:44;5.07;;;1.40;;
15317;SDS011;7759;52.528;13.346;2023-11-19T12:41:11;6.10;;;1.83;;
15317;SDS011;7759;52.528;13.346;2023-11-19T12:43:38;7.73;;;1.50;;
15317;SDS011;7759;52.528;13.346;2023-11-19T12:49:02;8.60;;;2.07;;
15317;SDS011;7759;52.528;13.346;2023-11-19T12:51:31;6.23;;;1.50;;
15317;SDS011;7759;52.528;13.346;2023-11-19T12:53:58;9.10;;;2.40;;
15317;SDS011;7759;52.528;13.346;2023-11-19T12:56:24;5.40;;;1.60;;
15317;SDS011;7759;52.528;13.346;2023-11-19T12:58:50;5.80;;;1.73;;
15317;SDS011;7759;52.528;13.346;2023-11-19T13:01:17;7.20;;;2.00;;
15317;SDS011;7759;52.528;13.346;2023-11-19T13:03:44;6.37;;;2.47;;
15317;SDS011;7759;52.528;13.346;2023-11-19T13:06:10;7.47;;;1.90;;
15317;SDS011;7759;52.528;13.346;2023-11-19T13:08:37;7.07;;;2.70;;
15317;SDS011;7759;52.528;13.346;2023-11-19T13:11:04;4.67;;;1.83;;
15317;SDS011;7759;52.528;13.346;2023-11-19T13:13:31;8.77;;;2.17;;
15317;SDS011;7759;52.528;13.346;2023-11-19T13:16:01;12.53;;;2.47;;
15317;SDS011;7759;52.528;13.346;2023-11-19T13:18:28;9.27;;;2.90;;
15317;SDS011;7759;52.528;13.346;2023-11-19T13:20:54;7.63;;;2.10;;
15317;SDS011;7759;52.528;13.346;2023-11-19T13:23:22;4.73;;;1.87;;
15317;SDS011;7759;52.528;13.346;2023-11-19T13:25:48;5.67;;;1.70;;
15317;SDS011;7759;52.528;13.346;2023-11-19T13:28:14;8.67;;;2.20;;
15317;SDS011;7759;52.528;13.346;2023-11-19T13:30:40;11.27;;;2.77;;
15317;SDS011;7759;52.528;13.346;2023-11-19T13:33:06;5.50;;;1.63;;
15317;SDS011;7759;52.528;13.346;2023-11-19T13:35:31;7.97;;;1.73;;
15317;SDS011;7759;52.528;13.346;2023-11-19T13:37:57;4.83;;;1.70;;
15317;SDS011;7759;52.528;13.346;2023-11-19T13:40:23;8.00;;;1.87;;
15317;SDS011;7759;52.528;13.346;2023-11-19T13:42:50;5.57;;;1.73;;
15317;SDS011;7759;52.528;13.346;2023-11-19T13:45:17;8.63;;;2.17;;
15317;SDS011;7759;52.528;13.346;2023-11-19T13:47:45;4.57;;;1.60;;
15317;SDS011;7759;52.528;13.346;2023-11-19T13:50:12;5.57;;;2.13;;
15317;SDS011;7759;52.528;13.346;2023-11-19T13:52:39;5.00;;;1.23;;
15317;SDS011;7759;52.528;13.346;2023-11-19T13:55:08;8.70;;;2.70;;
15317;SDS011;7759;52.528;13.346;2023-11-19T13:57:34;4.00;;;2.00;;
15317;SDS011;7759;52.528;13.346;2023-11-19T14:00:01;5.17;;;2.03;;
15317;SDS011;7759;52.528;13.346;2023-11-19T14:02:30;8.13;;;2.50;;
15317;SDS011;7759;52.528;13.346;2023-11-19T14:04:57;9.70;;;2.47;;
15317;SDS011;7759;52.528;13.346;2023-11-19T14:07:25;12.47;;;2.67;;
15317;SDS011;7759;52.528;13.346;2023-11-19T14:09:51;9.13;;;2.07;;
15317;SDS011;7759;52.528;13.346;2023-11-19T14:12:17;8.67;;;1.83;;
15317;SDS011;7759;52.528;13.346;2023-11-19T14:14:43;9.70;;;1.90;;
15317;SDS011;7759;52.528;13.346;2023-11-19T14:17:09;6.97;;;2.17;;
15317;SDS011;7759;52.528;13.346;2023-11-19T14:19:36;8.50;;;2.50;;
15317;SDS011;7759;52.528;13.346;2023-11-19T14:22:03;5.83;;;1.87;;
15317;SDS011;7759;52.528;13.346;2023-11-19T14:24:29;5.37;;;1.70;;
15317;SDS011;7759;52.528;13.346;2023-11-19T14:26:55;7.10;;;2.30;;
15317;SDS011;7759;52.528;13.346;2023-11-19T14:29:23;6.03;;;1.93;;
15317;SDS011;7759;52.528;13.346;2023-11-19T14:31:51;12.30;;;2.57;;
15317;SDS011;7759;52.528;13.346;2023-11-19T14:34:18;8.20;;;2.20;;
15317;SDS011;7759;52.528;13.346;2023-11-19T14:36:44;12.60;;;2.80;;
15317;SDS011;7759;52.528;13.346;2023-11-19T14:39:10;8.60;;;2.27;;
15317;SDS011;7759;52.528;13.346;2023-11-19T14:41:36;10.33;;;2.63;;
15317;SDS011;7759;52.528;13.346;2023-11-19T14:44:02;5.20;;;1.90;;
15317;SDS011;7759;52.528;13.346;2023-11-19T14:46:28;11.67;;;2.77;;
15317;SDS011;7759;52.528;13.346;2023-11-19T14:48:54;6.63;;;2.03;;
15317;SDS011;7759;52.528;13.346;2023-11-19T14:51:20;11.33;;;2.53;;
15317;SDS011;7759;52.528;13.346;2023-11-19T14:53:46;9.50;;;2.63;;
15317;SDS011;7759;52.528;13.346;2023-11-19T14:56:12;11.80;;;3.03;;
15317;SDS011;7759;52.528;13.346;2023-11-19T14:58:38;7.47;;;2.57;;
15317;SDS011;7759;52.528;13.346;2023-11-19T15:01:05;8.93;;;2.80;;
15317;SDS011;7759;52.528;13.346;2023-11-19T15:03:35;7.43;;;2.50;;
15317;SDS011;7759;52.528;13.346;2023-11-19T15:06:01;10.97;;;2.50;;
15317;SDS011;7759;52.528;13.346;2023-11-19T15:08:27;8.23;;;2.40;;